createdAt,value
2023-04-26T00:01:07.945Z,16.85
2023-04-26T00:04:12.218Z,16.51
2023-04-26T00:07:16.608Z,16.54
2023-04-26T00:10:21.116Z,16.63
2023-04-26T00:13:25.274Z,16.41
2023-04-26T00:16:29.884Z,15.21
2023-04-26T00:19:34.630Z,15.64
2023-04-26T00:22:39.776Z,16.29
2023-04-26T00:25:43.863Z,16.00
2023-04-26T00:28:47.769Z,15.86
2023-04-26T00:31:52.055Z,15.29
2023-04-26T00:34:56.361Z,15.93
2023-04-26T00:38:00.746Z,16.95
2023-04-26T00:41:05.384Z,15.85
2023-04-26T00:44:09.424Z,16.46
2023-04-26T00:47:13.763Z,17.21
2023-04-26T00:50:18.551Z,17.48
2023-04-26T00:53:24.424Z,15.32
2023-04-26T00:56:29.439Z,15.38
2023-04-26T00:59:36.118Z,15.29
2023-04-26T01:02:40.765Z,16.27
2023-04-26T01:05:45.567Z,16.44
2023-04-26T01:08:53.505Z,16.18
2023-04-26T01:11:59.337Z,16.37
2023-04-26T01:15:05.682Z,15.96
2023-04-26T01:18:10.451Z,16.46
2023-04-26T01:21:22.635Z,16.40
2023-04-26T01:24:27.482Z,16.01
2023-04-26T01:27:31.513Z,16.40
2023-04-26T01:30:35.509Z,16.16
2023-04-26T01:33:40.404Z,14.58
2023-04-26T01:36:45.253Z,15.87
2023-04-26T01:39:50.104Z,16.26
2023-04-26T01:42:57.916Z,16.83
2023-04-26T01:46:05.444Z,16.75
2023-04-26T01:49:10.186Z,17.18
2023-04-26T01:52:14.587Z,16.39
2023-04-26T01:55:18.765Z,17.46
2023-04-26T01:58:23.428Z,16.19
2023-04-26T02:01:28.298Z,15.58
2023-04-26T02:04:33.332Z,15.65
2023-04-26T02:07:37.751Z,14.54
2023-04-26T02:10:42.652Z,15.33
2023-04-26T02:13:47.345Z,14.35
2023-04-26T02:16:52.788Z,14.26
2023-04-26T02:19:57.874Z,15.22
2023-04-26T02:23:02.500Z,14.44
2023-04-26T02:26:06.392Z,14.31
2023-04-26T02:29:10.620Z,14.49
2023-04-26T02:32:15.521Z,14.59
2023-04-26T02:35:19.950Z,14.44
2023-04-26T02:38:27.072Z,14.11
2023-04-26T02:41:34.218Z,14.03
2023-04-26T02:44:40.363Z,13.07
2023-04-26T02:47:45.736Z,13.94
2023-04-26T02:50:50.236Z,14.14
2023-04-26T02:53:54.974Z,13.78
2023-04-26T02:56:59.766Z,13.87
2023-04-26T03:00:06.471Z,12.78
2023-04-26T03:03:13.426Z,13.67
2023-04-26T03:06:18.077Z,13.75
2023-04-26T03:09:23.098Z,14.07
2023-04-26T03:12:28.670Z,13.53
2023-04-26T03:15:33.386Z,13.16
2023-04-26T03:18:38.269Z,13.01
2023-04-26T03:21:43.965Z,12.71
2023-04-26T03:24:48.532Z,12.79
2023-04-26T03:27:53.610Z,12.85
2023-04-26T03:30:58.096Z,12.65
2023-04-26T03:34:02.675Z,12.56
2023-04-26T03:37:08.051Z,12.62
2023-04-26T03:40:13.618Z,12.61
2023-04-26T03:43:18.013Z,13.43
2023-04-26T03:46:22.080Z,13.47
2023-04-26T03:49:27.095Z,12.60
2023-04-26T03:52:32.702Z,12.34
2023-04-26T03:55:37.388Z,12.58
2023-04-26T03:58:42.943Z,12.94
2023-04-26T04:01:48.296Z,12.70
2023-04-26T04:04:53.300Z,12.15
2023-04-26T04:07:58.086Z,12.60
2023-04-26T04:11:03.080Z,12.07
2023-04-26T04:14:08.633Z,12.33
2023-04-26T04:17:12.855Z,12.23
2023-04-26T04:20:17.386Z,12.16
2023-04-26T04:23:22.346Z,12.64
2023-04-26T04:26:27.254Z,12.54
2023-04-26T04:29:32.429Z,11.91
2023-04-26T04:32:37.935Z,12.28
2023-04-26T04:35:44.141Z,12.08
2023-04-26T04:38:48.160Z,12.71
2023-04-26T04:41:55.206Z,12.08
2023-04-26T04:45:00.817Z,12.65
2023-04-26T04:48:07.891Z,12.86
2023-04-26T04:51:12.874Z,12.66
2023-04-26T04:54:19.359Z,12.05
2023-04-26T04:57:24.479Z,11.89
2023-04-26T05:00:29.633Z,11.64
2023-04-26T05:03:49.714Z,12.20
2023-04-26T05:06:54.396Z,12.02
2023-04-26T05:10:00.859Z,11.58
2023-04-26T05:13:09.048Z,11.60
2023-04-26T05:16:14.496Z,11.32
2023-04-26T05:19:18.939Z,11.93
2023-04-26T05:22:23.376Z,11.64
2023-04-26T05:25:28.626Z,11.35
2023-04-26T05:28:41.466Z,11.03
2023-04-26T05:32:14.645Z,11.63
2023-04-26T05:35:18.612Z,12.00
2023-04-26T05:38:23.329Z,11.49
2023-04-26T05:41:28.214Z,11.80
2023-04-26T05:44:32.921Z,11.99
2023-04-26T05:47:37.702Z,11.88
2023-04-26T05:50:41.794Z,11.44
2023-04-26T05:53:45.988Z,10.79
2023-04-26T05:56:50.654Z,10.84
2023-04-26T05:59:55.105Z,10.80
2023-04-26T06:03:00.169Z,11.46
2023-04-26T06:06:04.690Z,11.75
2023-04-26T06:09:09.462Z,11.47
2023-04-26T06:12:14.002Z,11.56
2023-04-26T06:15:21.341Z,11.60
2023-04-26T06:18:25.785Z,11.06
2023-04-26T06:21:36.228Z,11.58
2023-04-26T06:24:40.247Z,11.42
2023-04-26T06:27:44.692Z,11.49
2023-04-26T06:30:49.505Z,11.55
2023-04-26T06:33:54.324Z,11.18
2023-04-26T06:36:59.035Z,10.59
2023-04-26T06:40:10.005Z,10.88
2023-04-26T06:43:14.187Z,10.79
2023-04-26T06:46:44.427Z,10.70
2023-04-26T06:49:48.442Z,10.37
2023-04-26T06:52:53.024Z,10.96
2023-04-26T06:55:59.010Z,11.25
2023-04-26T06:59:07.908Z,11.48
2023-04-26T07:02:13.352Z,11.50
2023-04-26T07:05:19.492Z,11.25
2023-04-26T07:08:23.608Z,11.79
2023-04-26T07:11:27.844Z,11.19
2023-04-26T07:14:32.729Z,10.97
2023-04-26T07:17:37.520Z,11.06
2023-04-26T07:20:41.707Z,10.62
2023-04-26T07:23:45.603Z,10.97
2023-04-26T07:26:50.111Z,10.99
2023-04-26T07:29:57.445Z,10.95
2023-04-26T07:33:01.494Z,10.70
2023-04-26T07:36:06.441Z,10.45
2023-04-26T07:39:12.561Z,10.54
2023-04-26T07:42:16.682Z,10.74
2023-04-26T07:45:20.725Z,10.37
2023-04-26T07:48:25.503Z,10.54
2023-04-26T07:51:30.233Z,10.62
2023-04-26T07:54:34.842Z,10.87
2023-04-26T07:57:41.051Z,10.93
2023-04-26T08:00:45.600Z,10.46
2023-04-26T08:03:50.890Z,10.75
2023-04-26T08:06:54.945Z,10.72
2023-04-26T08:09:59.275Z,10.45
2023-04-26T08:13:04.172Z,10.66
2023-04-26T08:16:08.769Z,10.46
2023-04-26T08:19:13.371Z,10.25
2023-04-26T08:22:18.172Z,10.04
2023-04-26T08:25:22.268Z,10.16
2023-04-26T08:28:26.711Z,10.14
2023-04-26T08:31:30.559Z,9.88
2023-04-26T08:34:34.585Z,9.90
2023-04-26T08:37:39.218Z,9.96
2023-04-26T08:40:47.872Z,9.68
2023-04-26T08:43:53.822Z,9.44
2023-04-26T08:47:11.484Z,9.46
2023-04-26T08:50:21.508Z,9.61
2023-04-26T08:53:26.272Z,9.55
2023-04-26T08:56:30.414Z,9.33
2023-04-26T08:59:45.314Z,9.36
2023-04-26T09:02:54.407Z,9.24
2023-04-26T09:06:01.091Z,9.14
2023-04-26T09:09:08.993Z,8.95
2023-04-26T09:12:13.011Z,9.09
2023-04-26T09:15:17.644Z,8.82
2023-04-26T09:18:24.281Z,8.74
2023-04-26T09:21:40.436Z,8.55
2023-04-26T09:24:49.098Z,8.26
2023-04-26T09:27:53.724Z,8.31
2023-04-26T09:30:57.802Z,8.46
2023-04-26T09:34:02.124Z,8.38
2023-04-26T09:37:06.735Z,8.34
2023-04-26T09:40:20.813Z,8.19
2023-04-26T09:43:24.916Z,8.14
2023-04-26T09:46:28.841Z,8.07
2023-04-26T09:49:34.984Z,8.01
2023-04-26T09:52:48.388Z,7.69
2023-04-26T09:55:53.080Z,7.81
2023-04-26T09:59:01.400Z,7.76
2023-04-26T10:02:06.265Z,7.62
2023-04-26T10:05:11.238Z,7.49
2023-04-26T10:08:16.447Z,7.31
2023-04-26T10:11:23.316Z,7.27
2023-04-26T10:14:29.548Z,7.18
2023-04-26T10:17:33.913Z,7.15
2023-04-26T10:20:43.135Z,7.09
2023-04-26T10:23:50.222Z,6.91
2023-04-26T10:26:57.794Z,6.78
2023-04-26T10:30:05.906Z,6.75
2023-04-26T10:33:14.964Z,6.69
2023-04-26T10:36:21.933Z,6.44
2023-04-26T10:39:28.987Z,6.27
2023-04-26T10:42:33.219Z,6.22
2023-04-26T10:45:38.484Z,5.92
2023-04-26T10:48:42.809Z,5.90
2023-04-26T10:52:13.305Z,5.75
2023-04-26T10:55:43.260Z,5.20
2023-04-26T10:58:48.820Z,5.27
2023-04-26T11:01:54.056Z,5.50
2023-04-26T11:04:59.583Z,5.25
2023-04-26T11:08:07.928Z,4.82
2023-04-26T11:11:15.758Z,4.89
2023-04-26T11:14:20.373Z,4.69
2023-04-26T11:17:40.048Z,4.60
2023-04-26T11:20:54.950Z,4.49
2023-04-26T11:23:59.065Z,4.49
2023-04-26T11:27:10.581Z,4.57
2023-04-26T11:30:15.329Z,4.48
2023-04-26T11:33:23.167Z,4.33
2023-04-26T11:36:28.033Z,4.34
2023-04-26T11:39:34.227Z,4.05
2023-04-26T11:42:39.034Z,4.04
2023-04-26T11:45:43.982Z,4.15
2023-04-26T11:48:48.724Z,3.95
2023-04-26T11:51:53.475Z,3.85
2023-04-26T11:55:07.309Z,3.54
2023-04-26T11:58:15.966Z,3.52
2023-04-26T12:01:29.506Z,3.52
2023-04-26T12:04:38.743Z,3.39
2023-04-26T12:07:43.605Z,3.40
2023-04-26T12:10:48.291Z,3.38
2023-04-26T12:13:54.318Z,3.52
2023-04-26T12:17:04.203Z,3.48
2023-04-26T12:20:13.156Z,3.26
2023-04-26T12:23:19.087Z,3.32
2023-04-26T12:26:23.716Z,3.28
2023-04-26T12:29:31.338Z,3.23
2023-04-26T12:32:36.224Z,3.00
2023-04-26T12:35:40.966Z,2.72
2023-04-26T12:38:45.513Z,2.71
2023-04-26T12:41:50.457Z,2.71
2023-04-26T12:44:54.829Z,2.44
2023-04-26T12:47:59.053Z,2.16
2023-04-26T12:51:04.156Z,2.40
2023-04-26T12:54:10.108Z,2.34
2023-04-26T12:57:15.434Z,2.11
2023-04-26T13:00:22.063Z,2.11
2023-04-26T13:03:27.111Z,2.00
2023-04-26T13:06:33.057Z,1.69
2023-04-26T13:09:37.134Z,1.40
2023-04-26T13:12:43.612Z,1.39
2023-04-26T13:15:49.287Z,1.61
2023-04-26T13:18:53.900Z,1.71
2023-04-26T13:21:58.572Z,1.37
2023-04-26T13:25:03.246Z,1.34
2023-04-26T13:28:08.575Z,1.21
2023-04-26T13:31:12.679Z,1.25
2023-04-26T13:34:17.254Z,1.56
2023-04-26T13:37:23.180Z,1.70
2023-04-26T13:40:27.801Z,1.36
2023-04-26T13:43:33.866Z,1.12
2023-04-26T13:46:38.554Z,0.97
2023-04-26T13:49:43.076Z,0.80
2023-04-26T13:52:47.694Z,1.14
2023-04-26T13:55:51.665Z,1.10
2023-04-26T13:59:02.207Z,0.65
2023-04-26T14:02:06.780Z,1.00
2023-04-26T14:05:11.249Z,0.89
2023-04-26T14:08:15.584Z,0.69
2023-04-26T14:11:20.227Z,0.89
2023-04-26T14:14:24.448Z,0.96
2023-04-26T14:17:29.973Z,0.77
2023-04-26T14:20:34.559Z,0.55
2023-04-26T14:23:38.987Z,0.62
2023-04-26T14:26:43.087Z,0.52
2023-04-26T14:29:46.857Z,0.35
2023-04-26T14:32:51.425Z,0.48
2023-04-26T14:35:57.133Z,0.20
2023-04-26T14:39:01.611Z,0.28
2023-04-26T14:42:06.531Z,0.42
2023-04-26T14:45:11.654Z,0.27
2023-04-26T14:48:16.950Z,0.19
2023-04-26T14:51:23.930Z,-0.21
2023-04-26T14:54:27.748Z,0.12
2023-04-26T14:57:33.604Z,0.13
2023-04-26T15:00:39.758Z,0.05
2023-04-26T15:03:44.171Z,-0.06
2023-04-26T15:06:48.802Z,-0.10
2023-04-26T15:09:53.328Z,-0.12
2023-04-26T15:12:57.856Z,-0.10
2023-04-26T15:16:08.419Z,-0.30
2023-04-26T15:19:13.289Z,-0.24
2023-04-26T15:22:17.821Z,-0.37
2023-04-26T15:25:22.585Z,-0.24
2023-04-26T15:28:26.972Z,-0.26
2023-04-26T15:31:31.078Z,-0.26
2023-04-26T15:34:41.588Z,-0.09
2023-04-26T15:37:46.453Z,0.07
2023-04-26T15:40:54.699Z,-0.09
2023-04-26T15:44:00.301Z,0.06
2023-04-26T15:47:04.736Z,-0.08
2023-04-26T15:50:10.044Z,-0.12
2023-04-26T15:53:14.571Z,-0.13
2023-04-26T15:56:18.641Z,0.01
2023-04-26T15:59:23.201Z,-0.06
2023-04-26T16:02:27.457Z,-0.71
2023-04-26T16:05:32.475Z,-0.39
2023-04-26T16:08:40.342Z,-0.25
2023-04-26T16:11:45.399Z,-0.41
2023-04-26T16:14:52.007Z,-0.54
2023-04-26T16:17:56.215Z,-0.23
2023-04-26T16:21:10.357Z,-0.17
2023-04-26T16:24:14.837Z,-0.15
2023-04-26T16:27:21.852Z,-0.32
2023-04-26T16:30:26.412Z,-0.35
2023-04-26T16:33:30.713Z,-0.38
2023-04-26T16:36:34.764Z,-0.39
2023-04-26T16:39:39.197Z,-0.62
2023-04-26T16:42:45.312Z,-0.78
2023-04-26T16:45:59.156Z,-0.78
2023-04-26T16:49:10.004Z,-0.92
2023-04-26T16:52:14.165Z,-1.06
2023-04-26T16:55:18.328Z,-0.98
2023-04-26T16:58:23.141Z,-1.08
2023-04-26T17:01:27.652Z,-0.96
2023-04-26T17:04:32.610Z,-1.09
2023-04-26T17:07:37.862Z,-0.86
2023-04-26T17:10:43.141Z,-0.99
2023-04-26T17:13:47.235Z,-0.91
2023-04-26T17:16:51.668Z,-0.88
2023-04-26T17:19:56.200Z,-1.62
2023-04-26T17:23:02.173Z,-1.20
2023-04-26T17:26:06.203Z,-1.24
2023-04-26T17:29:10.461Z,-1.46
2023-04-26T17:32:14.454Z,-1.77
2023-04-26T17:35:18.938Z,-1.64
2023-04-26T17:38:22.968Z,-1.41
2023-04-26T17:41:27.022Z,-1.43
2023-04-26T17:44:31.023Z,-1.50
2023-04-26T17:47:35.185Z,-1.50
2023-04-26T17:50:39.397Z,-1.23
2023-04-26T17:53:43.715Z,-1.73
2023-04-26T17:56:48.572Z,-1.62
2023-04-26T17:59:53.021Z,-1.95
2023-04-26T18:02:58.624Z,-1.98
2023-04-26T18:06:02.812Z,-1.94
2023-04-26T18:09:07.972Z,-1.91
2023-04-26T18:12:12.463Z,-1.96
2023-04-26T18:15:16.243Z,-2.11
2023-04-26T18:18:20.474Z,-1.90
2023-04-26T18:21:24.698Z,-1.75
2023-04-26T18:24:29.155Z,-1.78
2023-04-26T18:27:33.873Z,-1.64
2023-04-26T18:30:37.937Z,-1.72
2023-04-26T18:33:42.408Z,-1.53
2023-04-26T18:36:46.758Z,-1.35
2023-04-26T18:39:50.890Z,-1.13
2023-04-26T18:42:55.494Z,-1.18
2023-04-26T18:46:00.221Z,-0.74
2023-04-26T18:49:05.044Z,-0.94
2023-04-26T18:52:09.663Z,-0.86
2023-04-26T18:55:14.370Z,-0.88
2023-04-26T18:58:18.801Z,-1.27
2023-04-26T19:01:23.720Z,-1.03
2023-04-26T19:04:29.007Z,-0.99
2023-04-26T19:07:33.251Z,-1.25
2023-04-26T19:10:37.775Z,-1.10
2023-04-26T19:13:42.664Z,-1.02
2023-04-26T19:16:47.926Z,-1.06
2023-04-26T19:19:52.974Z,-1.21
2023-04-26T19:22:57.444Z,-1.00
2023-04-26T19:26:09.977Z,-0.87
2023-04-26T19:29:14.401Z,-0.74
2023-04-26T19:32:20.635Z,-0.60
2023-04-26T19:35:25.216Z,-0.65
2023-04-26T19:38:30.162Z,-0.43
2023-04-26T19:41:34.759Z,-0.41
2023-04-26T19:44:40.738Z,-0.53
2023-04-26T19:47:45.234Z,-0.32
2023-04-26T19:50:50.091Z,-0.41
2023-04-26T19:53:54.953Z,-0.36
2023-04-26T19:56:59.952Z,-0.08
2023-04-26T20:00:05.806Z,-0.14
2023-04-26T20:03:11.761Z,0.17
2023-04-26T20:06:16.833Z,0.21
2023-04-26T20:09:21.895Z,0.25
2023-04-26T20:12:26.395Z,0.01
2023-04-26T20:15:32.991Z,-0.41
2023-04-26T20:18:38.475Z,-0.33
2023-04-26T20:21:43.022Z,0.23
2023-04-26T20:24:47.536Z,0.51
2023-04-26T20:27:52.376Z,0.66
2023-04-26T20:30:57.111Z,0.74
2023-04-26T20:34:01.822Z,0.82
2023-04-26T20:37:06.715Z,0.97
2023-04-26T20:40:11.687Z,0.78
2023-04-26T20:43:16.915Z,0.76
2023-04-26T20:46:21.923Z,0.77
2023-04-26T20:49:26.405Z,0.88
2023-04-26T20:52:31.032Z,1.07
2023-04-26T20:55:35.840Z,0.74
2023-04-26T20:58:41.953Z,1.05
2023-04-26T21:01:46.499Z,0.83
2023-04-26T21:04:51.425Z,1.23
2023-04-26T21:07:56.328Z,1.14
2023-04-26T21:11:00.976Z,1.42
2023-04-26T21:14:06.063Z,1.54
2023-04-26T21:17:10.590Z,1.66
2023-04-26T21:20:15.376Z,1.69
2023-04-26T21:23:20.293Z,1.77
2023-04-26T21:26:24.894Z,1.48
2023-04-26T21:29:29.521Z,1.81
2023-04-26T21:32:34.255Z,1.70
2023-04-26T21:35:38.357Z,1.99
2023-04-26T21:38:42.339Z,2.11
2023-04-26T21:41:46.725Z,1.82
2023-04-26T21:44:51.156Z,1.84
2023-04-26T21:47:56.791Z,2.09
2023-04-26T21:51:04.839Z,2.30
2023-04-26T21:54:08.985Z,2.51
2023-04-26T21:57:13.707Z,2.82
2023-04-26T22:00:18.924Z,3.17
2023-04-26T22:03:24.537Z,3.41
2023-04-26T22:06:29.837Z,3.40
2023-04-26T22:09:33.713Z,3.70
2023-04-26T22:12:38.065Z,3.45
2023-04-26T22:15:42.780Z,3.84
2023-04-26T22:18:46.986Z,3.84
2023-04-26T22:21:51.432Z,4.55
2023-04-26T22:24:56.460Z,5.36
2023-04-26T22:28:00.659Z,5.38
2023-04-26T22:31:04.688Z,5.19
2023-04-26T22:34:09.181Z,4.46
2023-04-26T22:37:21.115Z,5.38
2023-04-26T22:40:26.410Z,5.61
2023-04-26T22:43:31.098Z,5.86
2023-04-26T22:46:35.946Z,5.86
2023-04-26T22:49:40.463Z,5.68
2023-04-26T22:52:44.707Z,5.86
2023-04-26T22:55:49.628Z,5.92
2023-04-26T22:58:54.454Z,6.05
2023-04-26T23:01:59.036Z,6.37
2023-04-26T23:09:23.612Z,6.53
2023-04-26T23:12:58.261Z,6.70
2023-04-26T23:17:09.238Z,6.87
2023-04-26T23:26:28.283Z,7.00
2023-04-26T23:29:43.196Z,7.62
2023-04-26T23:32:47.776Z,7.69
2023-04-26T23:35:53.056Z,7.94
2023-04-26T23:38:57.692Z,7.98
2023-04-26T23:42:02.115Z,7.86
2023-04-26T23:45:08.576Z,8.29
2023-04-26T23:48:13.322Z,8.56
2023-04-26T23:51:18.128Z,8.75
2023-04-26T23:54:22.580Z,9.12
2023-04-26T23:57:27.405Z,9.29
